Time;durP1;ratioP1;P1;durP2;ratioP2;P2;SDS_P1;SDS_P2;PMS_P1;PMS_P2;Temp;Humidity;BMP_temperature;BMP_pressure;BME280_temperature;BME280_humidity;BME280_pressure;Samples;Min_cycle;Max_cycle;Signal;HPM_P1;HPM_P2
2021/10/02 00:35:49;;;;;;;;;;;11.60;99.90;;;10.36;100.00;95718.19;10513606;28;2012;-74
2021/10/02 00:41:22;;;;;;;;;;;11.50;99.90;;;10.34;100.00;95727.63;10521707;28;1917;-74
2021/10/02 00:46:25;;;;;;;;;;;11.50;99.90;;;10.30;100.00;95727.34;10536070;28;1945;-73
2021/10/02 00:51:27;;;;;;;;;;;11.40;99.90;;;10.22;100.00;95726.00;10526493;28;1980;-73
2021/10/02 00:56:30;;;;;;;;;;;11.40;99.90;;;10.21;100.00;95723.59;10525670;28;1779;-74
2021/10/02 01:01:33;;;;;;;;;;;11.40;99.90;;;10.24;100.00;95720.38;10522894;28;1997;-74
2021/10/02 01:06:43;;;;;;;;;;;11.40;99.90;;;10.23;100.00;95724.94;10527365;28;1987;-74
2021/10/02 01:11:46;;;;;;;;;;;11.40;99.90;;;10.25;100.00;95722.00;10533088;28;2062;-74
2021/10/02 01:16:51;;;;;;;;;;;11.40;99.90;;;10.22;100.00;95715.25;10529725;28;2130;-74
2021/10/02 01:21:54;;;;;;;;;;;11.40;99.90;;;10.19;100.00;95713.13;10531320;28;2092;-73
2021/10/02 01:26:57;;;;;;;;;;;11.30;99.90;;;10.14;100.00;95723.06;10526196;28;2064;-74
2021/10/02 01:32:22;;;;;;;;;;;11.30;99.90;;;10.12;100.00;95706.44;10527403;28;2093;-73
2021/10/02 01:37:32;;;;;;;;;;;11.30;99.90;;;10.10;100.00;95704.00;10526065;28;2096;-73
2021/10/02 01:47:56;;;;;;;;;;;11.20;99.90;;;10.17;100.00;95707.19;10527806;28;2068;-73
2021/10/02 01:52:59;;;;;;;;;;;11.20;99.90;;;10.17;100.00;95701.84;10530211;28;1994;-73
2021/10/02 01:58:02;;;;;;;;;;;11.20;99.90;;;10.11;100.00;95702.91;10527272;28;2066;-73
2021/10/02 02:03:04;;;;;;;;;;;11.20;99.90;;;10.10;100.00;95695.13;10525626;28;2114;-74
2021/10/02 02:08:07;;;;;;;;;;;11.20;99.90;;;10.13;100.00;95690.03;10531522;28;2018;-74
2021/10/02 02:13:10;;;;;;;;;;;11.10;99.90;;;10.16;100.00;95689.47;10529517;28;2042;-75
2021/10/02 02:18:13;;;;;;;;;;;11.20;99.90;;;10.18;100.00;95687.34;10522946;28;1982;-75
2021/10/02 02:23:16;;;;;;;;;;;11.30;99.90;;;10.23;100.00;95689.22;10527977;28;2081;-75
2021/10/02 02:28:19;;;;;;;;;;;11.30;99.90;;;10.23;100.00;95684.66;10527331;28;1922;-75
2021/10/02 02:33:22;;;;;;;;;;;11.30;99.90;;;10.26;100.00;95694.06;10527094;28;2046;-74
2021/10/02 02:38:25;;;;;;;;;;;11.30;99.90;;;10.30;100.00;95684.38;10524695;28;1975;-74
2021/10/02 02:43:32;;;;;;;;;;;11.30;99.90;;;10.39;100.00;95690.81;10535919;28;2006;-74
2021/10/02 02:48:35;;;;;;;;;;;11.40;99.90;;;10.50;100.00;95692.38;10528860;28;2116;-74
2021/10/02 02:53:41;;;;;;;;;;;11.50;99.90;;;10.66;100.00;95697.69;10526926;28;1981;-74
2021/10/02 02:58:43;;;;;;;;;;;11.60;99.90;;;10.66;100.00;95693.09;10530471;28;2072;-74
2021/10/02 03:03:46;;;;;;;;;;;11.70;99.90;;;10.55;100.00;95692.34;10520550;28;1983;-74
2021/10/02 03:08:51;;;;;;;;;;;11.60;99.90;;;10.47;100.00;95689.44;10531814;28;1995;-74
2021/10/02 03:13:54;;;;;;;;;;;11.60;99.90;;;10.39;100.00;95687.31;10560354;28;1958;-74
2021/10/02 03:18:56;;;;;;;;;;;11.60;99.90;;;10.40;100.00;95688.91;10578391;28;2030;-74
2021/10/02 03:23:59;;;;;;;;;;;11.50;99.90;;;10.39;100.00;95698.06;10576976;28;1949;-73
2021/10/02 03:29:02;;;;;;;;;;;11.50;99.90;;;10.28;100.00;95692.72;10569073;28;1939;-73
2021/10/02 03:34:05;;;;;;;;;;;11.40;99.90;;;10.25;100.00;95695.94;10539298;28;2033;-74
2021/10/02 03:39:08;;;;;;;;;;;11.40;99.90;;;10.22;100.00;95692.97;10532529;28;2422;-75
2021/10/02 03:44:11;;;;;;;;;;;11.40;99.90;;;10.18;100.00;95692.72;10530702;28;1967;-75
2021/10/02 03:49:14;;;;;;;;;;;11.30;99.90;;;10.11;100.00;95689.50;10529279;28;2029;-75
2021/10/02 03:54:16;;;;;;;;;;;11.30;99.90;;;10.05;100.00;95693.25;10532771;28;2054;-75
2021/10/02 03:59:21;;;;;;;;;;;11.20;99.90;;;10.02;100.00;95689.25;10545621;28;2049;-75
2021/10/02 04:04:23;;;;;;;;;;;11.20;99.90;;;10.05;100.00;95687.88;10565507;28;1913;-73
2021/10/02 04:09:27;;;;;;;;;;;11.20;99.90;;;10.08;100.00;95682.00;10554581;28;2040;-75
2021/10/02 04:14:30;;;;;;;;;;;11.20;99.90;;;10.10;100.00;95679.81;10530273;28;2009;-75
2021/10/02 04:19:33;;;;;;;;;;;11.20;99.90;;;10.15;100.00;95681.69;10525667;28;2045;-73
2021/10/02 04:24:36;;;;;;;;;;;11.20;99.90;;;10.20;100.00;95679.81;10524057;28;1959;-74
2021/10/02 04:29:38;;;;;;;;;;;11.20;99.90;;;10.21;100.00;95681.41;10529860;28;2018;-73
2021/10/02 04:34:41;;;;;;;;;;;11.20;99.90;;;10.16;100.00;95684.13;10525222;28;1983;-73
2021/10/02 04:39:44;;;;;;;;;;;11.20;99.90;;;10.07;100.00;95683.06;10530683;28;1995;-74
2021/10/02 04:44:47;;;;;;;;;;;11.20;99.90;;;9.96;100.00;95684.16;10534265;28;2090;-72
2021/10/02 04:49:50;;;;;;;;;;;11.10;99.90;;;9.93;100.00;95682.03;10537022;28;2125;-73
2021/10/02 04:54:56;;;;;;;;;;;11.10;99.90;;;9.98;100.00;95677.44;10534786;28;2021;-74
2021/10/02 04:59:59;;;;;;;;;;;11.10;99.90;;;9.99;100.00;95681.75;10534322;28;1959;-74
2021/10/02 05:05:02;;;;;;;;;;;11.10;99.90;;;10.02;100.00;95685.75;10528937;28;2095;-73
2021/10/02 05:10:05;;;;;;;;;;;11.10;99.90;;;10.08;100.00;95689.25;10548689;28;1935;-75
2021/10/02 05:15:07;;;;;;;;;;;11.20;99.90;;;10.09;100.00;95691.66;10532648;28;2013;-73
2021/10/02 05:20:10;;;;;;;;;;;11.20;99.90;;;10.08;100.00;95692.72;10533613;28;2080;-73
2021/10/02 05:25:13;;;;;;;;;;;11.10;99.90;;;10.10;100.00;95697.81;10528802;28;1985;-74
2021/10/02 05:30:16;;;;;;;;;;;11.20;99.90;;;10.16;100.00;95702.91;10536372;28;2034;-74
2021/10/02 05:35:19;;;;;;;;;;;11.20;99.90;;;10.24;100.00;95696.19;10532394;28;2010;-73
2021/10/02 05:40:25;;;;;;;;;;;11.20;99.90;;;10.35;100.00;95705.03;10533647;28;1971;-74
2021/10/02 05:45:28;;;;;;;;;;;11.30;99.90;;;10.46;100.00;95714.69;10528518;28;2009;-74
2021/10/02 05:50:31;;;;;;;;;;;11.40;99.90;;;10.60;100.00;95707.66;10538364;28;2041;-74
2021/10/02 05:55:33;;;;;;;;;;;11.50;99.90;;;10.81;100.00;95706.50;10547479;28;2077;-74
2021/10/02 06:00:36;;;;;;;;;;;11.60;99.90;;;11.05;100.00;95705.81;10547132;28;2090;-74
2021/10/02 06:05:39;;;;;;;;;;;11.80;99.90;;;11.31;100.00;95709.16;10536484;28;2037;-74
2021/10/02 06:10:42;;;;;;;;;;;12.00;99.90;;;11.65;100.00;95717.28;10553503;28;1986;-75
2021/10/02 06:15:45;;;;;;;;;;;12.30;99.90;;;11.94;99.34;95711.91;10551387;28;2022;-75
2021/10/02 06:20:48;;;;;;;;;;;12.60;99.90;;;12.16;98.13;95719.53;10552740;28;2395;-75
2021/10/02 06:25:50;;;;;;;;;;;12.80;99.90;;;12.39;97.36;95717.94;10549130;28;1902;-74
2021/10/02 06:30:53;;;;;;;;;;;13.00;99.90;;;12.65;96.23;95727.34;10555476;28;1982;-74
2021/10/02 06:35:56;;;;;;;;;;;13.20;99.90;;;13.09;93.14;95728.97;10542001;28;1995;-75
2021/10/02 06:40:59;;;;;;;;;;;13.50;99.90;;;13.25;91.51;95726.91;10553971;28;1962;-74
2021/10/02 06:46:04;;;;;;;;;;;13.80;99.90;;;13.44;91.01;95722.31;10544006;28;2042;-74
2021/10/02 06:51:07;;;;;;;;;;;14.00;99.90;;;13.68;88.67;95729.53;10541951;28;2025;-75
2021/10/02 06:56:09;;;;;;;;;;;14.20;99.90;;;13.87;87.19;95724.06;10529286;28;2128;-74
2021/10/02 07:01:12;;;;;;;;;;;14.50;99.90;;;14.09;87.75;95718.84;10531997;28;2113;-75
2021/10/02 07:06:15;;;;;;;;;;;14.70;99.90;;;14.09;85.09;95726.16;10522003;28;2052;-75
2021/10/02 07:11:18;;;;;;;;;;;14.80;99.90;;;14.26;82.97;95718.28;10533669;28;2046;-76
2021/10/02 07:16:21;;;;;;;;;;;15.00;99.90;;;14.92;80.19;95721.63;10527099;28;1970;-75
2021/10/02 07:21:24;;;;;;;;;;;15.20;99.90;;;15.19;79.35;95718.09;10529018;28;2037;-75
2021/10/02 07:26:27;;;;;;;;;;;15.60;99.90;;;15.42;78.70;95719.75;10521490;28;2082;-76
2021/10/02 07:31:30;;;;;;;;;;;15.90;99.90;;;15.67;76.02;95716.47;10531912;28;2103;-75
2021/10/02 07:36:33;;;;;;;;;;;16.10;99.90;;;16.26;72.64;95715.59;10523396;28;2093;-74
2021/10/02 07:41:36;;;;;;;;;;;16.50;99.90;;;16.50;70.51;95710.59;10527524;28;2096;-75
2021/10/02 07:46:39;;;;;;;;;;;16.90;99.90;;;16.46;72.35;95704.19;10534194;28;2018;-74
2021/10/02 07:51:42;;;;;;;;;;;17.10;99.90;;;16.60;71.76;95704.88;10526754;28;2089;-76
2021/10/02 07:56:45;;;;;;;;;;;17.10;99.90;;;16.35;73.07;95708.28;10527570;28;2091;-75
2021/10/02 08:01:47;;;;;;;;;;;17.30;99.90;;;16.53;72.96;95699.09;10526036;28;2002;-75
2021/10/02 08:06:51;;;;;;;;;;;17.30;99.90;;;16.68;72.78;95706.84;10517646;28;2087;-76
2021/10/02 08:11:54;;;;;;;;;;;17.30;99.90;;;16.65;72.19;95704.75;10526906;28;2030;-75
2021/10/02 08:16:57;;;;;;;;;;;17.40;99.90;;;17.00;70.86;95702.97;10524184;28;2065;-75
2021/10/02 08:22:00;;;;;;;;;;;17.50;99.90;;;17.14;71.34;95697.41;10524346;28;2034;-75
2021/10/02 08:27:03;;;;;;;;;;;17.70;99.90;;;17.43;71.77;95709.59;10522944;28;2043;-76
2021/10/02 08:32:06;;;;;;;;;;;17.90;99.90;;;17.58;70.67;95692.03;10525858;28;1943;-74
2021/10/02 08:37:09;;;;;;;;;;;18.10;99.90;;;17.63;71.10;95681.78;10525299;28;1797;-77
2021/10/02 08:42:12;;;;;;;;;;;18.20;99.90;;;17.69;70.22;95682.44;10529708;28;1947;-74
2021/10/02 08:47:15;;;;;;;;;;;18.30;99.90;;;17.71;69.35;95682.91;10527802;28;2141;-75
2021/10/02 08:52:18;;;;;;;;;;;18.40;99.90;;;18.03;69.58;95673.47;10524424;28;2046;-74
2021/10/02 08:57:20;;;;;;;;;;;18.60;99.90;;;18.06;69.34;95662.72;10526355;28;2007;-74
2021/10/02 09:02:23;;;;;;;;;;;18.80;99.90;;;18.37;68.38;95657.03;10524304;28;2043;-74
2021/10/02 09:07:27;;;;;;;;;;;18.90;99.90;;;18.52;66.44;95657.63;10522086;28;2037;-74
2021/10/02 09:12:31;;;;;;;;;;;19.10;99.90;;;18.76;66.05;95652.38;10528333;28;2061;-75
2021/10/02 09:17:34;;;;;;;;;;;19.20;99.90;;;18.92;62.92;95654.56;10523271;28;1990;-74
2021/10/02 09:22:37;;;;;;;;;;;19.40;99.90;;;18.92;64.03;95657.28;10518164;28;1971;-76
2021/10/02 09:27:40;;;;;;;;;;;19.50;99.90;;;19.13;64.66;95645.28;10524226;28;1947;-74
2021/10/02 09:32:43;;;;;;;;;;;19.60;99.90;;;19.41;63.25;95639.31;10530742;28;2022;-74
2021/10/02 09:37:46;;;;;;;;;;;19.80;99.90;;;19.92;60.58;95632.63;10530999;28;2144;-75
2021/10/02 09:42:49;;;;;;;;;;;20.10;99.90;;;20.48;58.54;95638.44;10539028;28;2002;-75
2021/10/02 09:47:52;;;;;;;;;;;20.50;99.90;;;20.63;56.49;95634.25;10528583;28;1979;-75
2021/10/02 09:52:55;;;;;;;;;;;20.90;99.90;;;21.33;53.65;95633.28;10531650;28;2125;-75
2021/10/02 09:57:58;;;;;;;;;;;21.50;99.90;;;21.40;53.43;95631.56;10527350;28;2068;-75
2021/10/02 10:03:01;;;;;;;;;;;21.80;99.90;;;21.54;52.28;95618.28;10530657;28;1914;-75
2021/10/02 10:08:04;;;;;;;;;;;21.90;99.90;;;21.37;50.96;95618.56;10524032;28;2029;-75
2021/10/02 10:13:07;;;;;;;;;;;22.00;99.90;;;20.96;52.36;95615.00;10538999;28;2236;-75
2021/10/02 10:18:10;;;;;;;;;;;21.80;99.90;;;21.30;51.53;95619.16;10530478;28;1990;-76
2021/10/02 10:23:13;;;;;;;;;;;21.90;99.90;;;21.33;50.90;95611.44;10526315;28;2092;-75
2021/10/02 10:28:16;;;;;;;;;;;22.00;99.90;;;21.10;50.25;95608.34;10531196;28;1908;-73
2021/10/02 10:33:19;;;;;;;;;;;21.80;99.90;;;21.10;51.37;95598.22;10527042;28;1943;-74
2021/10/02 10:38:22;;;;;;;;;;;21.80;99.90;;;20.98;50.57;95593.56;10531164;28;1876;-74
2021/10/02 10:43:24;;;;;;;;;;;21.70;99.90;;;20.83;50.24;95590.75;10534318;28;1984;-74
2021/10/02 10:48:27;;;;;;;;;;;21.60;99.90;;;20.81;50.20;95588.38;10527261;28;1821;-74
2021/10/02 10:53:30;;;;;;;;;;;21.50;99.90;;;20.92;47.57;95580.50;10529601;28;1884;-75
2021/10/02 10:58:33;;;;;;;;;;;21.60;99.90;;;21.14;46.65;95573.75;10532453;28;1927;-76
2021/10/02 11:03:36;;;;;;;;;;;21.70;99.90;;;21.00;45.51;95566.72;10524671;28;2033;-75
2021/10/02 11:08:39;;;;;;;;;;;21.80;99.90;;;20.92;46.91;95559.44;10527097;28;1928;-75
2021/10/02 11:13:42;;;;;;;;;;;21.70;99.90;;;20.88;48.42;95555.03;10529506;28;1834;-75
2021/10/02 11:18:45;;;;;;;;;;;21.70;99.90;;;20.67;46.98;95544.22;10524910;28;1896;-75
2021/10/02 11:23:50;;;;;;;;;;;21.70;99.90;;;20.71;45.20;95537.75;10524634;28;1905;-75
2021/10/02 11:28:52;;;;;;;;;;;21.60;99.90;;;20.72;44.80;95533.06;10523618;28;1948;-76
2021/10/02 11:33:55;;;;;;;;;;;21.50;99.90;;;20.84;44.95;95524.84;10524278;28;1873;-75
2021/10/02 11:38:58;;;;;;;;;;;21.50;99.90;;;20.83;44.09;95512.34;10518313;28;1968;-75
2021/10/02 11:44:04;;;;;;;;;;;21.60;99.90;;;20.86;46.04;95513.56;10525851;28;1926;-74
2021/10/02 11:49:07;;;;;;;;;;;21.60;99.90;;;20.62;43.88;95508.97;10524467;28;1856;-76
2021/10/02 11:54:10;;;;;;;;;;;21.60;99.90;;;20.41;45.55;95501.66;10531069;28;1924;-74
2021/10/02 11:59:13;;;;;;;;;;;21.40;99.90;;;20.37;45.88;95495.31;10522368;28;1876;-74
2021/10/02 12:04:15;;;;;;;;;;;21.30;99.90;;;20.43;45.44;95488.50;10526906;28;1976;-75
2021/10/02 12:09:18;;;;;;;;;;;21.30;99.90;;;20.28;46.61;95475.53;10525609;28;1985;-77
2021/10/02 12:14:21;;;;;;;;;;;21.30;99.90;;;20.29;45.69;95477.13;10528073;28;1931;-74
2021/10/02 12:19:24;;;;;;;;;;;21.20;99.90;;;20.71;45.89;95463.19;10523389;28;1934;-75
2021/10/02 12:24:27;;;;;;;;;;;21.40;99.90;;;20.63;45.63;95464.13;10518196;28;1958;-74
2021/10/02 12:29:30;;;;;;;;;;;21.50;99.90;;;20.41;45.88;95449.81;10524797;28;1903;-75
2021/10/02 12:34:32;;;;;;;;;;;21.40;99.90;;;20.54;46.20;95449.81;10522375;28;1887;-75
2021/10/02 12:39:35;;;;;;;;;;;21.30;99.90;;;20.45;46.93;95442.56;10525078;28;1903;-75
2021/10/02 12:44:39;;;;;;;;;;;21.30;99.90;;;20.50;47.43;95436.06;10521063;28;2018;-74
2021/10/02 12:49:42;;;;;;;;;;;21.40;99.90;;;20.57;46.98;95436.28;10526520;28;1958;-75
2021/10/02 12:54:44;;;;;;;;;;;21.40;99.90;;;20.76;46.42;95430.19;10523944;28;1916;-75
2021/10/02 12:59:47;;;;;;;;;;;21.50;99.90;;;20.82;46.55;95423.34;10530944;28;1892;-74
2021/10/02 13:04:50;;;;;;;;;;;21.60;99.90;;;20.90;47.63;95407.94;10528063;28;1949;-75
2021/10/02 13:09:53;;;;;;;;;;;21.70;99.90;;;20.83;47.28;95405.81;10530346;28;1932;-75
2021/10/02 13:14:56;;;;;;;;;;;21.70;99.90;;;20.77;47.77;95404.47;10534099;28;1861;-76
2021/10/02 13:19:59;;;;;;;;;;;21.70;99.90;;;20.64;46.62;95400.97;10529640;28;1877;-75
2021/10/02 13:25:02;;;;;;;;;;;21.60;99.90;;;20.42;46.99;95391.34;10525580;28;1909;-76
2021/10/02 13:30:05;;;;;;;;;;;21.40;99.90;;;20.46;47.29;95378.63;10522667;28;1814;-76
2021/10/02 13:35:08;;;;;;;;;;;21.30;99.90;;;20.60;46.85;95382.88;10541144;28;1910;-75
2021/10/02 13:40:11;;;;;;;;;;;21.30;99.90;;;20.67;44.43;95366.69;10535814;28;2266;-75
2021/10/02 13:45:14;;;;;;;;;;;21.50;99.90;;;20.68;45.24;95365.59;10529933;28;1910;-75
2021/10/02 13:50:16;;;;;;;;;;;21.50;99.90;;;20.61;45.78;95370.81;10531810;28;1873;-76
2021/10/02 13:55:19;;;;;;;;;;;21.50;99.90;;;20.48;45.32;95359.16;10531911;28;1890;-75
2021/10/02 14:00:22;;;;;;;;;;;21.40;99.90;;;20.52;47.01;95349.94;10531030;28;1937;-75
2021/10/02 14:05:25;;;;;;;;;;;21.40;99.90;;;20.37;47.85;95347.91;10526854;28;1904;-76
2021/10/02 14:10:31;;;;;;;;;;;21.40;99.90;;;20.40;46.74;95336.28;10528730;28;1926;-77
2021/10/02 14:15:34;;;;;;;;;;;21.30;99.90;;;20.47;45.23;95341.19;10532990;28;1843;-77
2021/10/02 14:20:36;;;;;;;;;;;21.30;99.90;;;20.35;47.24;95322.09;10531791;28;1889;-75
2021/10/02 14:25:40;;;;;;;;;;;21.30;99.90;;;20.35;48.06;95311.97;10527992;28;1906;-76
2021/10/02 14:30:43;;;;;;;;;;;21.20;99.90;;;20.21;48.86;95312.34;10530844;28;1878;-75
2021/10/02 14:35:46;;;;;;;;;;;21.20;99.90;;;20.13;49.69;95315.22;10523490;28;1884;-75
2021/10/02 14:40:49;;;;;;;;;;;21.10;99.90;;;20.21;48.84;95322.47;10529925;28;1897;-75
2021/10/02 14:45:52;;;;;;;;;;;21.10;99.90;;;19.96;50.42;95317.09;10532292;28;1909;-76
2021/10/02 14:50:55;;;;;;;;;;;21.00;99.90;;;19.94;51.37;95313.13;10528188;28;1931;-75
2021/10/02 14:55:58;;;;;;;;;;;20.80;99.90;;;19.91;51.33;95317.34;10525005;28;1941;-75
2021/10/02 15:01:00;;;;;;;;;;;20.80;99.90;;;19.92;52.47;95315.41;10532046;28;1836;-75
2021/10/02 15:06:04;;;;;;;;;;;20.80;99.90;;;19.87;52.33;95313.69;10523609;28;1909;-76
2021/10/02 15:11:06;;;;;;;;;;;20.80;99.90;;;19.77;53.67;95305.19;10530429;28;2156;-75
2021/10/02 15:16:09;;;;;;;;;;;20.70;99.90;;;19.69;53.65;95307.69;10527741;28;1931;-76
2021/10/02 15:21:13;;;;;;;;;;;20.70;99.90;;;19.62;54.04;95303.97;10529148;28;1912;-76
2021/10/02 15:26:16;;;;;;;;;;;20.60;99.90;;;19.61;54.63;95288.75;10526419;28;1914;-79
2021/10/02 15:31:18;;;;;;;;;;;20.60;99.90;;;19.46;56.27;95295.63;10530044;28;1876;-76
2021/10/02 15:36:21;;;;;;;;;;;20.50;99.90;;;19.32;58.13;95282.38;10524981;28;1849;-76
2021/10/02 15:41:24;;;;;;;;;;;20.30;99.90;;;19.20;59.85;95274.19;10528303;28;1845;-75
2021/10/02 15:46:27;;;;;;;;;;;20.20;99.90;;;19.17;59.75;95275.69;10535630;28;2046;-75
2021/10/02 15:51:30;;;;;;;;;;;20.10;99.90;;;19.10;59.39;95274.66;10531287;28;2158;-76
2021/10/02 15:56:34;;;;;;;;;;;20.10;99.90;;;18.98;59.85;95261.03;10528102;28;1842;-75
2021/10/02 16:01:37;;;;;;;;;;;20.00;99.90;;;18.90;58.90;95255.34;10544828;28;1909;-75
2021/10/02 16:06:40;;;;;;;;;;;19.90;99.90;;;18.73;59.61;95266.44;10552344;28;1943;-77
2021/10/02 16:11:43;;;;;;;;;;;19.80;99.90;;;18.60;59.76;95273.75;10544700;28;1874;-75
2021/10/02 16:16:46;;;;;;;;;;;19.70;99.90;;;18.43;61.21;95273.13;10570982;28;1898;-74
2021/10/02 16:21:49;;;;;;;;;;;19.50;99.90;;;18.25;62.50;95267.84;10562489;28;1885;-74
2021/10/02 16:26:52;;;;;;;;;;;19.40;99.90;;;18.00;63.26;95266.16;10550364;28;1910;-75
2021/10/02 16:31:55;;;;;;;;;;;19.10;99.90;;;17.85;64.03;95264.84;10533120;28;1904;-74
2021/10/02 16:36:58;;;;;;;;;;;19.00;99.90;;;17.72;64.45;95263.97;10535672;28;2310;-76
2021/10/02 16:42:11;;;;;;;;;;;18.90;99.90;;;17.48;65.25;95267.31;10535896;28;1975;-74
2021/10/02 16:47:14;;;;;;;;;;;18.60;99.90;;;17.25;66.30;95266.81;10534505;28;1913;-76
2021/10/02 16:52:17;;;;;;;;;;;18.40;99.90;;;17.10;67.41;95261.13;10549374;28;1916;-75
2021/10/02 16:57:20;;;;;;;;;;;18.20;99.90;;;16.95;68.28;95262.50;10565174;28;1798;-75
2021/10/02 17:02:23;;;;;;;;;;;18.10;99.90;;;16.71;69.49;95255.72;10572750;28;1760;-75
2021/10/02 17:07:26;;;;;;;;;;;17.90;99.90;;;16.58;70.21;95251.25;10546842;28;1924;-75
2021/10/02 17:12:29;;;;;;;;;;;17.80;99.90;;;16.53;70.75;95247.91;10565917;28;1728;-75
2021/10/02 17:17:31;;;;;;;;;;;17.60;99.90;;;16.31;71.64;95246.22;10559917;28;2164;-75
2021/10/02 17:22:34;;;;;;;;;;;17.50;99.90;;;16.35;71.95;95239.03;10544769;28;1841;-75
2021/10/02 17:27:37;;;;;;;;;;;17.40;99.90;;;16.14;73.10;95239.72;10538664;28;1967;-76
2021/10/02 17:32:40;;;;;;;;;;;17.30;99.90;;;16.13;73.39;95229.19;10535281;28;1857;-75
2021/10/02 17:37:43;;;;;;;;;;;17.20;99.90;;;15.96;73.99;95230.00;10522856;28;1900;-75
2021/10/02 17:42:45;;;;;;;;;;;17.10;99.90;;;16.08;73.90;95223.94;10532782;28;1876;-75
2021/10/02 17:47:48;;;;;;;;;;;17.10;99.90;;;15.94;75.04;95229.53;10523864;28;2017;-75
2021/10/02 17:52:51;;;;;;;;;;;17.00;99.90;;;15.87;76.19;95218.38;10533311;28;1887;-74
2021/10/02 17:57:54;;;;;;;;;;;17.00;99.90;;;15.85;77.82;95218.72;10533478;28;1979;-75
2021/10/02 18:02:57;;;;;;;;;;;16.90;99.90;;;15.67;79.47;95217.91;10527058;28;1864;-75
2021/10/02 18:08:00;;;;;;;;;;;16.80;99.90;;;15.56;81.10;95216.59;10521237;28;1973;-75
2021/10/02 18:13:03;;;;;;;;;;;16.70;99.90;;;15.44;82.56;95216.44;10529034;28;1827;-76
2021/10/02 18:18:06;;;;;;;;;;;16.50;99.90;;;15.43;83.02;95231.09;10528602;28;1895;-75
2021/10/02 18:23:10;;;;;;;;;;;16.50;99.90;;;15.45;84.74;95228.84;10533349;28;1835;-76
2021/10/02 18:28:13;;;;;;;;;;;16.50;99.90;;;15.36;85.77;95218.03;10529587;28;1906;-75
2021/10/02 18:33:16;;;;;;;;;;;16.50;99.90;;;15.27;87.34;95219.13;10531849;28;1868;-76
2021/10/02 18:38:18;;;;;;;;;;;16.40;99.90;;;15.18;88.30;95212.91;10527764;28;1796;-75
2021/10/02 18:43:21;;;;;;;;;;;16.30;99.90;;;15.06;89.53;95211.59;10530838;28;1368;-75
2021/10/02 18:48:24;;;;;;;;;;;16.20;99.90;;;14.92;90.78;95202.81;10524628;28;1905;-74
2021/10/02 18:53:29;;;;;;;;;;;16.10;99.90;;;14.80;91.75;95198.00;10529003;28;1903;-75
2021/10/02 18:58:32;;;;;;;;;;;16.00;99.90;;;14.74;92.19;95209.28;10530803;28;1888;-75
2021/10/02 19:03:35;;;;;;;;;;;15.90;99.90;;;14.55;93.16;95206.84;10525230;28;1522;-74
2021/10/02 19:08:38;;;;;;;;;;;15.80;99.90;;;14.42;94.56;95199.59;10523688;28;1941;-75
2021/10/02 19:13:41;;;;;;;;;;;15.60;99.90;;;14.39;95.09;95206.44;10535352;28;1308;-74
2021/10/02 19:18:45;;;;;;;;;;;15.60;99.90;;;14.32;96.28;95200.69;10526777;28;1868;-75
2021/10/02 19:23:48;;;;;;;;;;;15.50;99.90;;;14.30;96.55;95192.06;10530704;28;1415;-74
2021/10/02 19:28:50;;;;;;;;;;;15.50;99.90;;;14.23;96.72;95199.81;10528375;28;1919;-75
2021/10/02 19:33:53;;;;;;;;;;;15.40;99.90;;;14.19;97.76;95182.66;10523956;28;1435;-75
2021/10/02 19:38:56;;;;;;;;;;;15.30;99.90;;;14.17;98.36;95182.13;10531479;28;1900;-74
2021/10/02 19:43:59;;;;;;;;;;;15.30;99.90;;;13.95;99.47;95185.69;10533540;28;1884;-74
2021/10/02 19:49:02;;;;;;;;;;;15.20;99.90;;;13.80;100.00;95178.75;10527492;28;1985;-74
2021/10/02 19:54:05;;;;;;;;;;;15.00;99.90;;;13.76;100.00;95175.06;10528429;28;1423;-74
2021/10/02 19:59:07;;;;;;;;;;;14.90;99.90;;;13.77;100.00;95180.16;10529483;28;1876;-74
2021/10/02 20:04:11;;;;;;;;;;;14.90;99.90;;;13.64;100.00;95189.13;10523576;28;1408;-74
2021/10/02 20:09:14;;;;;;;;;;;14.90;99.90;;;13.50;100.00;95181.09;10521125;28;1918;-75
2021/10/02 20:14:17;;;;;;;;;;;14.70;99.90;;;13.41;100.00;95169.41;10544021;28;1501;-74
2021/10/02 20:19:20;;;;;;;;;;;14.60;99.90;;;13.33;100.00;95163.94;10560012;28;1862;-73
2021/10/02 20:24:23;;;;;;;;;;;14.60;99.90;;;13.29;100.00;95163.75;10556734;28;1693;-75
2021/10/02 20:29:25;;;;;;;;;;;14.50;99.90;;;13.19;100.00;95155.88;10548759;28;1973;-74
2021/10/02 20:34:28;;;;;;;;;;;14.40;99.90;;;13.18;100.00;95156.97;10542279;28;1293;-75
2021/10/02 20:39:31;;;;;;;;;;;14.40;99.90;;;13.09;100.00;95159.59;10555511;28;1941;-75
2021/10/02 20:44:34;;;;;;;;;;;14.30;99.90;;;13.06;100.00;95148.63;10546277;28;1473;-74
2021/10/02 20:49:37;;;;;;;;;;;14.20;99.90;;;13.03;100.00;95154.59;10521692;28;1967;-74
2021/10/02 20:54:40;;;;;;;;;;;14.20;99.90;;;13.09;100.00;95153.41;10521889;28;1930;-75
2021/10/02 20:59:42;;;;;;;;;;;14.20;99.90;;;13.02;100.00;95153.03;10526966;28;1904;-75
2021/10/02 21:04:45;;;;;;;;;;;14.20;99.90;;;13.01;100.00;95140.63;10522931;28;1885;-74
2021/10/02 21:09:48;;;;;;;;;;;14.10;99.90;;;12.95;100.00;95143.44;10516808;28;1920;-75
2021/10/02 21:14:51;;;;;;;;;;;14.10;99.90;;;12.96;100.00;95141.53;10518977;28;1347;-75
2021/10/02 21:19:54;;;;;;;;;;;14.10;99.90;;;12.95;99.79;95143.44;10525854;28;1964;-75
2021/10/02 21:24:58;;;;;;;;;;;14.00;99.90;;;12.93;98.32;95134.88;10524150;28;1664;-74
2021/10/02 21:30:01;;;;;;;;;;;14.00;99.90;;;12.89;97.83;95130.38;10531564;28;1945;-74
2021/10/02 21:35:04;;;;;;;;;;;14.00;99.90;;;12.70;98.83;95130.50;10533482;28;1941;-73
2021/10/02 21:40:07;;;;;;;;;;;13.90;99.90;;;12.66;99.29;95121.41;10526612;28;1932;-74
2021/10/02 21:45:30;;;;;;;;;;;13.80;99.90;;;12.65;98.11;95126.00;10539094;28;1237;-75
2021/10/02 21:50:53;;;;;;;;;;;13.80;99.90;;;12.66;97.91;95121.41;10526637;28;1885;-74
2021/10/02 21:56:16;;;;;;;;;;;13.70;99.90;;;12.61;98.31;95121.53;10525618;28;1877;-75
2021/10/02 22:01:39;;;;;;;;;;;13.80;99.90;;;12.50;98.95;95125.53;10532583;28;1330;-76
2021/10/02 22:07:02;;;;;;;;;;;13.70;99.90;;;12.43;99.11;95121.34;10526532;28;1906;-74
2021/10/02 22:12:05;;;;;;;;;;;13.60;99.90;;;12.43;98.00;95132.13;10533280;28;1331;-74
2021/10/02 22:17:08;;;;;;;;;;;13.50;99.90;;;12.40;98.67;95132.72;10530044;28;1865;-74
2021/10/02 22:22:11;;;;;;;;;;;13.50;99.90;;;12.33;98.66;95120.75;10531710;28;1839;-74
2021/10/02 22:27:14;;;;;;;;;;;13.50;99.90;;;12.33;99.31;95124.25;10529975;28;1966;-74
2021/10/02 22:32:17;;;;;;;;;;;13.50;99.90;;;12.26;98.84;95120.34;10525025;28;1918;-74
2021/10/02 22:37:19;;;;;;;;;;;13.40;99.90;;;12.16;98.94;95113.28;10527990;28;1851;-74
2021/10/02 22:42:22;;;;;;;;;;;13.30;99.90;;;12.07;99.90;95106.97;10531419;28;1350;-75
2021/10/02 22:47:25;;;;;;;;;;;13.30;99.90;;;12.12;99.89;95098.81;10519675;28;1932;-75
2021/10/02 22:52:28;;;;;;;;;;;13.20;99.90;;;12.03;99.69;95100.63;10529194;28;1914;-75
2021/10/02 22:57:31;;;;;;;;;;;13.20;99.90;;;12.03;99.45;95095.22;10528738;28;1910;-74
2021/10/02 23:02:34;;;;;;;;;;;13.20;99.90;;;11.88;100.00;95099.78;10530940;28;1296;-73
2021/10/02 23:07:37;;;;;;;;;;;13.10;99.90;;;11.88;100.00;95104.38;10523044;28;2019;-75
2021/10/02 23:12:39;;;;;;;;;;;13.10;99.90;;;11.94;99.15;95099.69;10531272;28;1896;-75
2021/10/02 23:17:42;;;;;;;;;;;13.10;99.90;;;11.93;98.88;95090.03;10523771;28;1848;-74
2021/10/02 23:22:45;;;;;;;;;;;13.00;99.90;;;11.83;98.24;95096.38;10533909;28;1465;-74
2021/10/02 23:27:48;;;;;;;;;;;13.00;99.90;;;11.77;98.13;95092.16;10520169;28;1913;-74
2021/10/02 23:32:51;;;;;;;;;;;12.90;99.90;;;11.80;97.25;95087.00;10526356;28;1254;-74
2021/10/02 23:37:54;;;;;;;;;;;12.90;99.90;;;11.77;96.68;95089.47;10524356;28;1802;-74
2021/10/02 23:42:56;;;;;;;;;;;12.90;99.90;;;11.63;96.23;95092.94;10519448;28;1267;-75
2021/10/02 23:47:59;;;;;;;;;;;12.90;99.90;;;11.67;95.90;95082.38;10523645;28;1980;-74